Time;durP1;ratioP1;P1;durP2;ratioP2;P2;SDS_P1;SDS_P2;PMS_P1;PMS_P2;Temp;Humidity;BMP_temperature;BMP_pressure;BME280_temperature;BME280_humidity;BME280_pressure;Samples;Min_cycle;Max_cycle;Signal;HPM_P1;HPM_P2
2022/03/16 00:02:08;;;;;;;32.78;23.20;;;;;;;;;;6278171;22;20007;-82
2022/03/16 00:04:34;;;;;;;32.78;22.95;;;;;;;;;;6281387;22;19996;-82
2022/03/16 00:07:00;;;;;;;32.25;23.38;;;;;;;;;;6281469;22;20000;-83
2022/03/16 00:09:26;;;;;;;34.97;24.33;;;;;;;;;;6254592;22;20015;-83
2022/03/16 00:11:53;;;;;;;36.58;25.08;;;;;;;;;;6254242;22;20320;-82
2022/03/16 00:14:19;;;;;;;35.97;27.55;;;;;;;;;;6253310;22;20010;-82
2022/03/16 00:16:45;;;;;;;37.05;26.38;;;;;;;;;;6280309;22;20000;-82
2022/03/16 00:19:11;;;;;;;40.85;27.83;;;;;;;;;;6252986;22;20000;-82
2022/03/16 00:21:37;;;;;;;34.78;25.48;;;;;;;;;;6253366;22;20031;-81
2022/03/16 00:24:03;;;;;;;38.85;26.67;;;;;;;;;;6280386;22;20308;-81
2022/03/16 00:26:29;;;;;;;37.17;27.23;;;;;;;;;;6253012;22;20231;-83
2022/03/16 00:28:55;;;;;;;38.63;29.17;;;;;;;;;;6253149;22;20007;-81
2022/03/16 00:31:21;;;;;;;36.47;26.38;;;;;;;;;;6253526;22;20039;-82
2022/03/16 00:33:47;;;;;;;37.20;26.77;;;;;;;;;;6280778;22;20027;-81
2022/03/16 00:36:13;;;;;;;39.80;28.05;;;;;;;;;;6254541;22;20412;-82
2022/03/16 00:38:39;;;;;;;37.70;26.80;;;;;;;;;;6253401;22;20325;-83
2022/03/16 00:41:07;;;;;;;38.08;27.17;;;;;;;;;;6253924;22;20034;-82
2022/03/16 00:43:33;;;;;;;36.95;25.98;;;;;;;;;;6252896;22;20004;-82
2022/03/16 00:46:00;;;;;;;35.03;25.65;;;;;;;;;;6280675;22;20003;-83
2022/03/16 00:48:26;;;;;;;38.80;26.23;;;;;;;;;;6281342;22;20030;-82
2022/03/16 00:50:52;;;;;;;32.60;24.33;;;;;;;;;;6280520;22;20376;-82
2022/03/16 00:53:18;;;;;;;32.10;23.75;;;;;;;;;;6253170;22;20456;-82
2022/03/16 00:55:44;;;;;;;33.78;22.98;;;;;;;;;;6253382;22;19996;-82
2022/03/16 00:58:10;;;;;;;32.70;22.95;;;;;;;;;;6281158;22;20000;-83
2022/03/16 01:00:36;;;;;;;30.45;23.27;;;;;;;;;;6282276;22;20445;-82
2022/03/16 01:03:02;;;;;;;32.03;22.80;;;;;;;;;;6282170;22;20000;-83
2022/03/16 01:05:28;;;;;;;31.00;22.90;;;;;;;;;;6282569;22;20016;-82
2022/03/16 01:07:54;;;;;;;33.25;23.10;;;;;;;;;;6282370;22;19996;-82
2022/03/16 01:10:20;;;;;;;34.13;22.92;;;;;;;;;;6254163;22;20476;-83
2022/03/16 01:12:46;;;;;;;32.70;21.55;;;;;;;;;;6254285;22;20010;-81
2022/03/16 01:15:12;;;;;;;31.63;21.13;;;;;;;;;;6254886;22;20022;-83
2022/03/16 01:17:38;;;;;;;30.55;20.52;;;;;;;;;;6255121;22;20014;-83
2022/03/16 01:20:05;;;;;;;33.22;20.30;;;;;;;;;;6255812;22;20078;-82
2022/03/16 01:22:31;;;;;;;31.02;18.38;;;;;;;;;;6282924;22;19996;-82
2022/03/16 01:24:57;;;;;;;29.63;16.77;;;;;;;;;;6257188;22;20015;-82
2022/03/16 01:27:23;;;;;;;29.45;16.98;;;;;;;;;;6256385;22;20011;-82
2022/03/16 01:29:49;;;;;;;26.00;15.30;;;;;;;;;;6284648;22;20027;-82
2022/03/16 01:32:15;;;;;;;21.15;14.15;;;;;;;;;;6284720;22;20008;-81
2022/03/16 01:34:41;;;;;;;23.85;12.45;;;;;;;;;;6258991;22;20090;-82
2022/03/16 01:37:07;;;;;;;19.67;11.55;;;;;;;;;;6284541;22;19996;-83
2022/03/16 01:39:33;;;;;;;23.23;12.15;;;;;;;;;;6282409;22;20336;-82
2022/03/16 01:41:59;;;;;;;21.27;11.77;;;;;;;;;;6282913;22;19996;-83
2022/03/16 01:44:42;;;;;;;19.42;11.07;;;;;;;;;;6283719;22;20026;-81
2022/03/16 01:47:08;;;;;;;20.00;10.95;;;;;;;;;;6286316;22;20004;-83
2022/03/16 01:49:34;;;;;;;20.45;10.95;;;;;;;;;;6283074;22;20462;-83
2022/03/16 01:52:00;;;;;;;18.83;10.63;;;;;;;;;;6283400;22;20435;-83
2022/03/16 01:54:26;;;;;;;19.13;10.85;;;;;;;;;;6255777;22;20004;-82
2022/03/16 01:56:52;;;;;;;18.77;10.02;;;;;;;;;;6287039;22;20391;-83
2022/03/16 01:59:18;;;;;;;21.42;11.25;;;;;;;;;;6262640;22;20388;-83
2022/03/16 02:01:44;;;;;;;17.08;11.10;;;;;;;;;;6289347;22;19995;-83
2022/03/16 02:04:10;;;;;;;19.42;12.60;;;;;;;;;;6290088;22;20000;-83
2022/03/16 02:06:36;;;;;;;18.35;10.50;;;;;;;;;;6292262;22;20003;-82
2022/03/16 02:09:02;;;;;;;19.08;10.80;;;;;;;;;;6260933;22;20388;-83
2022/03/16 02:11:28;;;;;;;18.33;11.35;;;;;;;;;;6261170;22;20039;-83
2022/03/16 02:13:54;;;;;;;21.23;12.15;;;;;;;;;;6288863;22;20007;-83
2022/03/16 02:16:20;;;;;;;18.30;10.77;;;;;;;;;;6288051;22;20332;-84
2022/03/16 02:18:46;;;;;;;19.75;11.02;;;;;;;;;;6290091;22;20000;-83
2022/03/16 02:21:13;;;;;;;16.60;10.93;;;;;;;;;;6262910;22;20000;-83
2022/03/16 02:23:39;;;;;;;20.45;11.98;;;;;;;;;;6291718;22;20000;-84
2022/03/16 02:26:06;;;;;;;15.43;10.38;;;;;;;;;;6266026;22;20018;-84
2022/03/16 02:28:32;;;;;;;18.27;11.25;;;;;;;;;;6265396;22;20014;-84
2022/03/16 02:30:59;;;;;;;15.85;9.93;;;;;;;;;;6265988;22;20008;-83
2022/03/16 02:33:26;;;;;;;19.17;11.10;;;;;;;;;;6290761;22;20378;-84
2022/03/16 02:35:52;;;;;;;18.52;11.38;;;;;;;;;;6261689;22;20007;-83
2022/03/16 02:38:18;;;;;;;16.58;12.40;;;;;;;;;;6288540;22;20004;-83
2022/03/16 02:40:44;;;;;;;16.67;11.23;;;;;;;;;;6288442;22;20425;-83
2022/03/16 02:43:10;;;;;;;17.48;12.35;;;;;;;;;;6288664;22;20431;-83
2022/03/16 02:45:36;;;;;;;16.25;10.90;;;;;;;;;;6288956;22;20010;-84
2022/03/16 02:48:02;;;;;;;16.60;10.90;;;;;;;;;;6287586;22;20011;-83
2022/03/16 02:50:28;;;;;;;17.83;10.65;;;;;;;;;;6262317;22;20061;-84
2022/03/16 02:52:54;;;;;;;17.30;10.68;;;;;;;;;;6263564;22;20003;-83
2022/03/16 02:55:20;;;;;;;18.52;11.40;;;;;;;;;;6291007;22;19996;-83
2022/03/16 02:57:46;;;;;;;16.88;11.65;;;;;;;;;;6289464;22;20019;-83
2022/03/16 03:00:14;;;;;;;17.70;11.38;;;;;;;;;;6291637;22;20007;-84
2022/03/16 03:02:41;;;;;;;22.27;15.27;;;;;;;;;;6265406;22;20377;-81
2022/03/16 03:05:07;;;;;;;27.30;18.70;;;;;;;;;;6260971;22;20004;-83
2022/03/16 03:07:33;;;;;;;25.85;17.67;;;;;;;;;;6287750;22;20076;-82
2022/03/16 03:09:59;;;;;;;24.85;17.65;;;;;;;;;;6257416;22;20008;-83
2022/03/16 03:12:25;;;;;;;26.58;17.63;;;;;;;;;;6284041;22;20075;-84
2022/03/16 03:14:51;;;;;;;25.65;18.25;;;;;;;;;;6289948;22;20427;-84
2022/03/16 03:17:17;;;;;;;21.38;14.25;;;;;;;;;;6292324;22;20011;-84
2022/03/16 03:19:43;;;;;;;17.77;12.10;;;;;;;;;;6261112;22;20000;-83
2022/03/16 03:22:10;;;;;;;17.80;11.85;;;;;;;;;;6262930;22;20004;-82
2022/03/16 03:24:36;;;;;;;15.27;11.30;;;;;;;;;;6286915;22;20385;-83
2022/03/16 03:27:02;;;;;;;16.52;11.82;;;;;;;;;;6262147;22;20007;-83
2022/03/16 03:29:28;;;;;;;15.85;10.85;;;;;;;;;;6261092;22;20083;-83
2022/03/16 03:31:55;;;;;;;17.42;10.95;;;;;;;;;;6260756;22;20004;-83
2022/03/16 03:34:22;;;;;;;16.17;10.23;;;;;;;;;;6259606;22;20012;-83
2022/03/16 03:36:48;;;;;;;16.10;10.15;;;;;;;;;;6259358;22;20019;-83
2022/03/16 03:39:14;;;;;;;15.82;9.65;;;;;;;;;;6286028;22;20003;-81
2022/03/16 03:41:40;;;;;;;14.27;9.32;;;;;;;;;;6258745;22;20404;-83
2022/03/16 03:44:06;;;;;;;14.48;9.77;;;;;;;;;;6286818;22;20031;-82
2022/03/16 03:46:32;;;;;;;13.63;9.77;;;;;;;;;;6284691;22;20016;-82
2022/03/16 03:48:58;;;;;;;14.18;9.43;;;;;;;;;;6257077;22;20008;-82
2022/03/16 03:51:24;;;;;;;14.38;8.88;;;;;;;;;;6284739;22;20027;-81
2022/03/16 03:53:50;;;;;;;15.20;9.80;;;;;;;;;;6283796;22;20026;-82
2022/03/16 03:56:16;;;;;;;13.43;9.02;;;;;;;;;;6284348;22;20057;-82
2022/03/16 03:58:42;;;;;;;15.18;9.77;;;;;;;;;;6256848;22;20031;-82
2022/03/16 04:01:08;;;;;;;13.80;8.70;;;;;;;;;;6254586;22;20020;-82
2022/03/16 04:03:35;;;;;;;13.23;8.48;;;;;;;;;;6256023;22;20030;-82
2022/03/16 04:06:01;;;;;;;14.35;9.02;;;;;;;;;;6257820;22;20008;-82
2022/03/16 04:08:27;;;;;;;14.48;8.73;;;;;;;;;;6256249;22;20007;-82
2022/03/16 04:10:53;;;;;;;12.00;8.00;;;;;;;;;;6283737;22;20031;-81
2022/03/16 04:13:19;;;;;;;12.50;8.63;;;;;;;;;;6256037;22;20003;-82
2022/03/16 04:15:45;;;;;;;13.30;8.52;;;;;;;;;;6283153;22;19995;-83
2022/03/16 04:18:11;;;;;;;13.98;9.35;;;;;;;;;;6255908;22;19999;-82
2022/03/16 04:20:39;;;;;;;11.68;8.48;;;;;;;;;;6281998;22;20057;-82
2022/03/16 04:23:05;;;;;;;13.02;8.93;;;;;;;;;;6254754;22;20022;-83
2022/03/16 04:25:31;;;;;;;14.75;8.93;;;;;;;;;;6255059;22;20000;-82
2022/03/16 04:27:57;;;;;;;13.07;9.45;;;;;;;;;;6282224;22;20000;-82
2022/03/16 04:30:23;;;;;;;15.23;9.50;;;;;;;;;;6255703;22;19992;-82
2022/03/16 04:32:51;;;;;;;13.32;8.75;;;;;;;;;;6256577;22;20007;-83
2022/03/16 04:35:20;;;;;;;14.60;9.45;;;;;;;;;;6255744;22;20011;-83
2022/03/16 04:37:46;;;;;;;14.68;8.63;;;;;;;;;;6282817;22;19996;-83
2022/03/16 04:40:12;;;;;;;13.98;9.23;;;;;;;;;;6289929;22;20064;-83
2022/03/16 04:42:38;;;;;;;14.25;9.60;;;;;;;;;;6290260;22;20000;-82
2022/03/16 04:45:05;;;;;;;13.23;9.40;;;;;;;;;;6288535;22;20058;-82
2022/03/16 04:47:31;;;;;;;14.07;8.77;;;;;;;;;;6289169;22;20011;-82
2022/03/16 04:49:57;;;;;;;15.48;10.10;;;;;;;;;;6290549;22;20004;-81
2022/03/16 04:52:25;;;;;;;15.40;9.90;;;;;;;;;;6260320;22;20000;-82
2022/03/16 04:54:51;;;;;;;16.33;10.38;;;;;;;;;;6255337;22;20344;-83
2022/03/16 04:57:17;;;;;;;16.90;10.70;;;;;;;;;;6255648;22;20000;-84
2022/03/16 04:59:43;;;;;;;14.38;9.52;;;;;;;;;;6281780;22;20014;-83
2022/03/16 05:02:09;;;;;;;15.45;10.52;;;;;;;;;;6254899;22;20004;-83
2022/03/16 05:04:35;;;;;;;18.13;12.07;;;;;;;;;;6283080;22;20003;-83
2022/03/16 05:07:01;;;;;;;15.93;10.50;;;;;;;;;;6282034;22;19995;-85
2022/03/16 05:09:27;;;;;;;16.33;10.77;;;;;;;;;;6255126;22;20105;-84
2022/03/16 05:11:53;;;;;;;19.10;12.35;;;;;;;;;;6282420;22;20004;-84
2022/03/16 05:14:19;;;;;;;18.02;10.73;;;;;;;;;;6282248;22;20046;-86
2022/03/16 05:16:45;;;;;;;17.55;11.13;;;;;;;;;;6282162;22;20004;-83
2022/03/16 05:19:11;;;;;;;19.55;13.70;;;;;;;;;;6257597;22;20050;-84
2022/03/16 05:21:37;;;;;;;18.45;13.18;;;;;;;;;;6285214;22;20000;-84
2022/03/16 05:24:03;;;;;;;19.17;13.02;;;;;;;;;;6261989;22;20004;-83
2022/03/16 05:26:29;;;;;;;19.85;13.30;;;;;;;;;;6289284;22;20000;-83
2022/03/16 05:28:56;;;;;;;21.13;13.88;;;;;;;;;;6261825;22;20030;-82
2022/03/16 05:31:22;;;;;;;22.00;14.13;;;;;;;;;;6259738;22;20003;-85
2022/03/16 05:33:49;;;;;;;19.20;13.38;;;;;;;;;;6284417;22;20011;-82
2022/03/16 05:36:15;;;;;;;21.95;13.63;;;;;;;;;;6283887;22;20007;-85
2022/03/16 05:38:41;;;;;;;19.77;12.93;;;;;;;;;;6256499;22;20004;-84
2022/03/16 05:41:07;;;;;;;21.38;14.73;;;;;;;;;;6255425;22;20091;-83
2022/03/16 05:43:33;;;;;;;21.65;14.10;;;;;;;;;;6254172;22;20034;-83
2022/03/16 05:46:01;;;;;;;21.58;14.52;;;;;;;;;;6281848;22;20003;-84
2022/03/16 05:48:27;;;;;;;22.02;15.10;;;;;;;;;;6254646;22;20008;-83
2022/03/16 05:50:53;;;;;;;24.77;16.80;;;;;;;;;;6280851;22;20099;-82
2022/03/16 05:53:19;;;;;;;25.70;16.05;;;;;;;;;;6280658;22;20042;-84
2022/03/16 05:55:45;;;;;;;23.17;16.98;;;;;;;;;;6281463;22;20003;-84
2022/03/16 05:58:11;;;;;;;25.83;16.45;;;;;;;;;;6254150;22;20004;-82
2022/03/16 06:00:40;;;;;;;24.27;17.20;;;;;;;;;;6254577;22;20038;-85
2022/03/16 06:03:07;;;;;;;28.67;17.45;;;;;;;;;;6282925;22;20000;-82
2022/03/16 06:05:33;;;;;;;26.50;18.08;;;;;;;;;;6253855;22;20008;-82
2022/03/16 06:07:59;;;;;;;24.15;17.17;;;;;;;;;;6254758;22;20042;-83
2022/03/16 06:10:25;;;;;;;25.90;18.25;;;;;;;;;;6258758;22;20015;-83
2022/03/16 06:13:02;;;;;;;24.30;16.52;;;;;;;;;;6281237;22;19999;-84
2022/03/16 06:15:28;;;;;;;25.10;16.73;;;;;;;;;;6280825;22;20011;-83
2022/03/16 06:17:55;;;;;;;24.25;16.27;;;;;;;;;;6254379;22;20011;-84
2022/03/16 06:20:21;;;;;;;24.65;15.73;;;;;;;;;;6255022;22;20352;-85
2022/03/16 06:22:47;;;;;;;27.75;17.40;;;;;;;;;;6281077;22;19996;-82
2022/03/16 06:25:13;;;;;;;23.20;15.95;;;;;;;;;;6255362;22;20050;-82
2022/03/16 06:27:40;;;;;;;22.65;15.13;;;;;;;;;;6255896;22;20090;-82
2022/03/16 06:30:06;;;;;;;24.45;14.80;;;;;;;;;;6255022;22;20003;-82
2022/03/16 06:32:32;;;;;;;24.80;15.70;;;;;;;;;;6255626;22;20383;-83
2022/03/16 06:34:58;;;;;;;26.48;17.25;;;;;;;;;;6254954;22;20008;-83
2022/03/16 06:37:24;;;;;;;28.38;17.52;;;;;;;;;;6253851;22;19999;-83
2022/03/16 06:39:50;;;;;;;25.70;16.60;;;;;;;;;;6282338;22;20026;-84
2022/03/16 06:42:16;;;;;;;26.27;16.55;;;;;;;;;;6253599;22;20073;-83
2022/03/16 06:44:43;;;;;;;25.67;17.20;;;;;;;;;;6253989;22;20034;-84
2022/03/16 06:47:09;;;;;;;23.85;15.82;;;;;;;;;;6254772;22;20007;-83
2022/03/16 06:49:35;;;;;;;25.20;16.25;;;;;;;;;;6256153;22;20012;-83
2022/03/16 06:52:01;;;;;;;30.15;17.63;;;;;;;;;;6282420;22;20031;-83
2022/03/16 06:54:27;;;;;;;25.73;16.55;;;;;;;;;;6254897;22;20382;-84
2022/03/16 06:56:53;;;;;;;23.15;15.63;;;;;;;;;;6283737;22;20086;-82
2022/03/16 06:59:19;;;;;;;26.17;17.33;;;;;;;;;;6256237;22;20035;-84
2022/03/16 07:01:45;;;;;;;24.92;16.27;;;;;;;;;;6256452;22;20009;-83
2022/03/16 07:04:11;;;;;;;22.02;15.52;;;;;;;;;;6286905;22;20010;-82
2022/03/16 07:06:37;;;;;;;24.08;15.68;;;;;;;;;;6260445;22;19991;-84
2022/03/16 07:09:03;;;;;;;21.02;13.80;;;;;;;;;;6257560;22;20003;-82
2022/03/16 07:11:29;;;;;;;20.25;14.18;;;;;;;;;;6283560;22;20152;-83
2022/03/16 07:16:41;;;;;;;19.63;12.95;;;;;;;;;;6285082;22;20010;-83
2022/03/16 07:19:07;;;;;;;16.85;11.68;;;;;;;;;;6257285;22;20000;-83
2022/03/16 07:21:34;;;;;;;18.65;13.60;;;;;;;;;;6284841;22;19996;-84
2022/03/16 07:24:00;;;;;;;18.27;11.88;;;;;;;;;;6257425;22;20008;-84
2022/03/16 07:26:27;;;;;;;16.85;11.18;;;;;;;;;;6282832;22;20003;-82
2022/03/16 07:28:53;;;;;;;17.42;11.52;;;;;;;;;;6255908;22;20098;-84
2022/03/16 07:31:19;;;;;;;18.10;12.40;;;;;;;;;;6256067;22;20033;-82
2022/03/16 07:33:45;;;;;;;18.60;12.75;;;;;;;;;;6255517;22;20004;-83
2022/03/16 07:36:11;;;;;;;18.48;12.65;;;;;;;;;;6256589;22;20006;-84
2022/03/16 07:38:37;;;;;;;18.98;13.82;;;;;;;;;;6282746;22;19996;-83
2022/03/16 07:41:04;;;;;;;16.83;12.70;;;;;;;;;;6282985;22;20377;-82
2022/03/16 07:43:30;;;;;;;17.90;12.70;;;;;;;;;;6283250;22;20079;-83
2022/03/16 07:45:56;;;;;;;18.23;13.35;;;;;;;;;;6255775;22;20011;-84
2022/03/16 07:48:22;;;;;;;19.90;13.23;;;;;;;;;;6254798;22;20007;-83
2022/03/16 07:50:50;;;;;;;17.70;12.15;;;;;;;;;;6255506;22;20010;-83
2022/03/16 07:53:16;;;;;;;22.58;13.75;;;;;;;;;;6254938;22;20027;-83
2022/03/16 07:55:42;;;;;;;18.67;12.88;;;;;;;;;;6256216;22;20000;-83
2022/03/16 07:58:08;;;;;;;18.85;12.88;;;;;;;;;;6255794;22;20436;-84
2022/03/16 08:00:34;;;;;;;19.15;12.57;;;;;;;;;;6283666;22;20015;-82
2022/03/16 08:03:01;;;;;;;19.48;12.70;;;;;;;;;;6257267;22;20416;-83
2022/03/16 08:05:28;;;;;;;20.73;13.55;;;;;;;;;;6256739;22;19995;-83
2022/03/16 08:07:54;;;;;;;21.08;14.93;;;;;;;;;;6282571;22;20000;-83
2022/03/16 08:10:21;;;;;;;21.10;14.52;;;;;;;;;;6255450;22;20004;-84
2022/03/16 08:12:47;;;;;;;21.20;13.93;;;;;;;;;;6256394;22;20080;-84
2022/03/16 08:15:13;;;;;;;21.58;14.65;;;;;;;;;;6255807;22;20004;-83
2022/03/16 08:17:39;;;;;;;22.00;13.98;;;;;;;;;;6255484;22;20094;-83
2022/03/16 08:20:06;;;;;;;21.75;15.68;;;;;;;;;;6255313;22;20003;-84
2022/03/16 08:22:32;;;;;;;24.02;16.75;;;;;;;;;;6255117;22;20000;-83
2022/03/16 08:25:00;;;;;;;24.55;16.25;;;;;;;;;;6255317;22;20085;-84
2022/03/16 08:27:27;;;;;;;26.00;16.35;;;;;;;;;;6282784;22;20124;-82
2022/03/16 08:29:53;;;;;;;26.00;16.38;;;;;;;;;;6283023;22;20004;-82
2022/03/16 08:32:20;;;;;;;24.85;16.35;;;;;;;;;;6283701;22;20344;-84
2022/03/16 08:34:46;;;;;;;25.15;17.08;;;;;;;;;;6282932;22;20003;-82
2022/03/16 08:37:12;;;;;;;24.80;16.73;;;;;;;;;;6282124;22;19998;-82
2022/03/16 08:39:39;;;;;;;25.77;17.95;;;;;;;;;;6254538;22;20015;-82
2022/03/16 08:42:06;;;;;;;25.58;16.75;;;;;;;;;;6257710;22;19996;-83
2022/03/16 08:44:32;;;;;;;25.38;17.38;;;;;;;;;;6258259;22;20008;-83
2022/03/16 08:46:58;;;;;;;26.55;17.48;;;;;;;;;;6283516;22;20000;-83
2022/03/16 08:49:24;;;;;;;26.27;18.33;;;;;;;;;;6280771;22;20041;-83
2022/03/16 08:51:50;;;;;;;28.95;17.80;;;;;;;;;;6281517;22;20454;-83
2022/03/16 08:54:16;;;;;;;26.08;17.90;;;;;;;;;;6254212;22;20050;-84
2022/03/16 08:56:43;;;;;;;27.15;18.42;;;;;;;;;;6254789;22;20004;-84
2022/03/16 08:59:09;;;;;;;27.48;17.80;;;;;;;;;;6254506;22;20012;-84
2022/03/16 09:01:35;;;;;;;26.52;18.33;;;;;;;;;;6254608;22;20003;-83
2022/03/16 09:04:02;;;;;;;25.38;17.58;;;;;;;;;;6281537;22;20050;-84
2022/03/16 09:06:29;;;;;;;26.65;18.23;;;;;;;;;;6281003;22;20004;-84
2022/03/16 09:08:55;;;;;;;27.20;18.27;;;;;;;;;;6281488;22;20025;-83
2022/03/16 09:11:21;;;;;;;26.63;18.23;;;;;;;;;;6254559;22;20440;-84
2022/03/16 09:13:47;;;;;;;27.55;18.70;;;;;;;;;;6281760;22;20007;-84
2022/03/16 09:16:14;;;;;;;28.50;19.88;;;;;;;;;;6255375;22;20000;-84
2022/03/16 09:18:40;;;;;;;32.40;21.30;;;;;;;;;;6281235;22;19996;-83
2022/03/16 09:21:06;;;;;;;30.23;20.98;;;;;;;;;;6254952;22;19999;-83
2022/03/16 09:23:32;;;;;;;29.92;21.48;;;;;;;;;;6280796;22;20129;-84
2022/03/16 09:25:59;;;;;;;30.85;22.15;;;;;;;;;;6281743;22;20000;-83
2022/03/16 09:28:25;;;;;;;29.75;20.98;;;;;;;;;;6253530;22;20008;-84
2022/03/16 09:30:51;;;;;;;35.17;22.45;;;;;;;;;;6254838;22;20004;-84
2022/03/16 09:33:17;;;;;;;29.08;20.85;;;;;;;;;;6281595;22;19999;-84
2022/03/16 09:35:47;;;;;;;34.13;21.77;;;;;;;;;;6255189;22;20011;-83
2022/03/16 09:38:14;;;;;;;33.35;22.08;;;;;;;;;;6281436;22;20071;-83
2022/03/16 09:40:40;;;;;;;30.65;21.05;;;;;;;;;;6255149;22;20061;-83
2022/03/16 09:43:07;;;;;;;34.08;22.10;;;;;;;;;;6282449;22;19999;-82
2022/03/16 09:45:38;;;;;;;30.73;20.98;;;;;;;;;;6282720;22;20379;-83
2022/03/16 09:48:04;;;;;;;33.95;22.70;;;;;;;;;;6254451;22;20033;-83
2022/03/16 09:50:30;;;;;;;29.65;21.23;;;;;;;;;;6281800;22;19996;-84
2022/03/16 09:52:57;;;;;;;33.42;21.02;;;;;;;;;;6254427;22;20004;-82
2022/03/16 09:55:23;;;;;;;33.75;22.10;;;;;;;;;;6254364;22;20320;-83
2022/03/16 09:57:49;;;;;;;29.88;21.15;;;;;;;;;;6281824;22;19999;-82
2022/03/16 10:00:17;;;;;;;31.13;21.40;;;;;;;;;;6280590;22;20065;-84
2022/03/16 10:02:43;;;;;;;34.38;22.65;;;;;;;;;;6253786;22;20024;-84
2022/03/16 10:05:10;;;;;;;37.08;24.13;;;;;;;;;;6254482;22;20361;-84
2022/03/16 10:07:37;;;;;;;32.35;21.33;;;;;;;;;;6281428;22;19999;-83
2022/03/16 10:15:34;;;;;;;27.38;18.90;;;;;;;;;;6282305;22;20022;-83
2022/03/16 10:18:04;;;;;;;24.52;17.17;;;;;;;;;;6255873;22;20004;-83
2022/03/16 10:20:31;;;;;;;22.60;14.88;;;;;;;;;;6256658;22;20045;-84
2022/03/16 10:23:00;;;;;;;19.50;15.20;;;;;;;;;;6286432;22;20000;-83
2022/03/16 10:25:32;;;;;;;19.10;13.85;;;;;;;;;;6259984;22;20385;-83
2022/03/16 10:27:59;;;;;;;;;;;;;;;;;;6256283;22;20023;-85
2022/03/16 10:30:27;;;;;;;19.00;14.30;;;;;;;;;;6283025;22;19906;-83
2022/03/16 10:32:54;;;;;;;19.08;13.90;;;;;;;;;;6256579;22;20014;-86
2022/03/16 10:35:20;;;;;;;20.63;14.63;;;;;;;;;;6257499;22;20007;-83
2022/03/16 10:37:49;;;;;;;20.90;14.00;;;;;;;;;;6255549;22;20026;-84
2022/03/16 10:40:26;;;;;;;19.95;13.98;;;;;;;;;;6256104;22;20347;-82
2022/03/16 10:48:23;;;;;;;16.38;13.07;;;;;;;;;;6282407;22;20077;-84
2022/03/16 10:50:50;;;;;;;17.83;13.38;;;;;;;;;;6283253;22;20053;-83
2022/03/16 10:53:17;;;;;;;14.88;11.48;;;;;;;;;;6256312;22;20014;-83
2022/03/16 10:55:44;;;;;;;15.30;11.95;;;;;;;;;;6258035;22;20109;-84
2022/03/16 10:58:13;;;;;;;14.52;11.80;;;;;;;;;;6256502;22;20328;-84
2022/03/16 11:00:41;;;;;;;15.18;12.57;;;;;;;;;;6255445;22;20019;-83
2022/03/16 11:03:09;;;;;;;16.27;12.63;;;;;;;;;;6256601;22;19999;-83
2022/03/16 11:05:38;;;;;;;15.90;12.85;;;;;;;;;;6284005;22;19999;-82
2022/03/16 11:08:07;;;;;;;14.60;11.93;;;;;;;;;;6256395;22;20443;-83
2022/03/16 11:10:34;;;;;;;14.70;11.35;;;;;;;;;;6283404;22;20431;-83
2022/03/16 11:15:47;;;;;;;13.60;10.45;;;;;;;;;;6283480;22;20019;-84
2022/03/16 11:18:13;;;;;;;14.30;10.93;;;;;;;;;;6282940;22;20072;-82
2022/03/16 11:20:39;;;;;;;13.00;11.10;;;;;;;;;;6282178;22;20006;-83
2022/03/16 11:26:03;;;;;;;14.07;10.90;;;;;;;;;;6282841;22;20015;-82
2022/03/16 11:28:35;;;;;;;14.95;11.18;;;;;;;;;;6282121;22;20004;-81
2022/03/16 11:31:01;;;;;;;16.08;11.27;;;;;;;;;;6281632;22;19996;-83
2022/03/16 11:33:27;;;;;;;18.30;13.40;;;;;;;;;;6255414;22;20011;-83
2022/03/16 11:35:55;;;;;;;16.00;12.20;;;;;;;;;;6283082;22;19996;-84
2022/03/16 11:38:21;;;;;;;16.05;12.93;;;;;;;;;;6254384;22;20027;-84
2022/03/16 11:40:49;;;;;;;15.23;11.77;;;;;;;;;;6252690;22;20003;-84
2022/03/16 11:43:19;;;;;;;15.73;12.75;;;;;;;;;;6281383;22;20076;-83
2022/03/16 11:45:57;;;;;;;15.98;12.10;;;;;;;;;;6254383;22;20000;-82
2022/03/16 11:48:33;;;;;;;15.43;11.73;;;;;;;;;;6256031;22;20035;-84
2022/03/16 11:51:14;;;;;;;15.63;12.25;;;;;;;;;;6254472;22;20000;-83
2022/03/16 11:53:51;;;;;;;16.80;13.05;;;;;;;;;;6253752;22;20026;-84
2022/03/16 11:56:20;;;;;;;15.55;12.70;;;;;;;;;;6254660;22;20016;-84
2022/03/16 11:58:47;;;;;;;17.85;13.23;;;;;;;;;;6254580;22;20007;-84
2022/03/16 12:01:32;;;;;;;18.52;13.27;;;;;;;;;;6257677;22;20106;-84
2022/03/16 12:04:02;;;;;;;18.80;14.10;;;;;;;;;;6285589;22;20052;-82
2022/03/16 12:06:48;;;;;;;16.95;13.00;;;;;;;;;;6255857;22;20453;-83
2022/03/16 12:09:20;;;;;;;20.30;14.73;;;;;;;;;;6281423;22;20043;-84
2022/03/16 12:15:09;;;;;;;18.13;14.10;;;;;;;;;;6242122;22;20058;-84
2022/03/16 12:17:36;;;;;;;20.13;14.05;;;;;;;;;;6281305;22;20006;-84
2022/03/16 12:20:10;;;;;;;20.48;14.55;;;;;;;;;;6281670;22;20035;-84
2022/03/16 12:22:37;;;;;;;18.60;14.07;;;;;;;;;;6280551;22;20019;-84
2022/03/16 12:25:22;;;;;;;19.80;15.02;;;;;;;;;;6254300;22;20003;-83
2022/03/16 12:30:39;;;;;;;25.77;15.35;;;;;;;;;;6280627;22;20044;-83
2022/03/16 12:33:05;;;;;;;20.00;15.15;;;;;;;;;;6281019;22;20006;-84
2022/03/16 12:35:34;;;;;;;21.70;15.23;;;;;;;;;;6254668;22;20058;-83
2022/03/16 12:38:01;;;;;;;22.58;15.82;;;;;;;;;;6254568;22;20004;-83
2022/03/16 12:40:29;;;;;;;23.55;16.67;;;;;;;;;;6253221;22;20000;-84
2022/03/16 12:42:58;;;;;;;21.02;15.68;;;;;;;;;;6254434;22;20023;-83
2022/03/16 12:45:28;;;;;;;23.52;16.73;;;;;;;;;;6280552;22;20000;-84
2022/03/16 12:48:04;;;;;;;25.20;16.45;;;;;;;;;;6277793;22;20003;-83
2022/03/16 12:50:30;;;;;;;21.75;14.63;;;;;;;;;;6255852;22;20012;-83
2022/03/16 12:52:57;;;;;;;20.00;14.95;;;;;;;;;;6292651;22;20006;-84
2022/03/16 12:55:24;;;;;;;21.10;15.18;;;;;;;;;;6290687;22;20000;-83
2022/03/16 12:57:56;;;;;;;18.55;14.27;;;;;;;;;;6266823;22;20004;-83
2022/03/16 13:00:31;;;;;;;19.60;14.73;;;;;;;;;;6267321;22;20027;-83
2022/03/16 13:03:11;;;;;;;19.70;14.38;;;;;;;;;;6285367;22;19996;-84
2022/03/16 13:05:38;;;;;;;20.27;15.98;;;;;;;;;;6281135;22;20380;-83
2022/03/16 13:08:04;;;;;;;18.48;14.18;;;;;;;;;;6253711;22;20004;-82
2022/03/16 13:11:14;;;;;;;18.08;13.90;;;;;;;;;;6254297;22;20008;-83
2022/03/16 13:13:19;;;;;;;17.45;12.85;;;;;;;;;;6280753;22;20004;-83
2022/03/16 13:15:49;;;;;;;18.27;13.27;;;;;;;;;;6253802;22;20000;-82
2022/03/16 13:18:28;;;;;;;18.65;13.90;;;;;;;;;;6281396;22;19995;-83
2022/03/16 13:20:54;;;;;;;20.70;13.90;;;;;;;;;;6280924;22;19999;-84
2022/03/16 13:23:28;;;;;;;19.30;14.70;;;;;;;;;;6279715;22;19996;-83
2022/03/16 13:26:12;;;;;;;18.65;13.55;;;;;;;;;;6280169;22;20002;-84
2022/03/16 13:28:39;;;;;;;19.17;14.98;;;;;;;;;;6291538;22;20045;-84
2022/03/16 13:31:05;;;;;;;18.20;14.02;;;;;;;;;;6297057;22;20049;-85
2022/03/16 13:33:32;;;;;;;18.15;13.82;;;;;;;;;;6266397;22;20443;-83
2022/03/16 13:36:11;;;;;;;18.67;13.57;;;;;;;;;;6266895;22;19999;-82
2022/03/16 13:38:37;;;;;;;17.85;14.13;;;;;;;;;;6256226;22;20007;-84
2022/03/16 13:41:10;;;;;;;19.05;14.10;;;;;;;;;;6257633;22;20336;-84
2022/03/16 13:43:38;;;;;;;20.38;15.05;;;;;;;;;;6256072;22;20079;-85
2022/03/16 13:46:13;;;;;;;21.67;15.10;;;;;;;;;;6253243;22;20053;-84
2022/03/16 13:48:40;;;;;;;19.05;14.20;;;;;;;;;;6280814;22;20000;-85
2022/03/16 13:51:07;;;;;;;19.40;14.18;;;;;;;;;;6253992;22;20011;-85
2022/03/16 13:53:43;;;;;;;20.30;15.00;;;;;;;;;;6280820;22;20317;-85
2022/03/16 13:56:13;;;;;;;21.65;15.82;;;;;;;;;;6279916;22;20443;-84
2022/03/16 13:58:40;;;;;;;19.48;15.57;;;;;;;;;;6279943;22;20011;-85
2022/03/16 14:01:06;;;;;;;23.42;17.42;;;;;;;;;;6253373;22;20016;-85
2022/03/16 14:03:32;;;;;;;23.08;16.33;;;;;;;;;;6282865;22;20019;-85
2022/03/16 14:06:00;;;;;;;22.88;16.27;;;;;;;;;;6255183;22;20391;-85
2022/03/16 14:08:26;;;;;;;22.23;16.65;;;;;;;;;;6282064;22;20020;-84
2022/03/16 14:10:56;;;;;;;23.85;16.95;;;;;;;;;;6281037;22;20003;-86
2022/03/16 14:13:23;;;;;;;24.20;17.85;;;;;;;;;;6254525;22;20083;-83
2022/03/16 14:15:49;;;;;;;23.02;16.60;;;;;;;;;;6283968;22;20004;-85
2022/03/16 14:18:23;;;;;;;21.65;17.10;;;;;;;;;;6254984;22;20003;-84
2022/03/16 14:20:55;;;;;;;23.67;17.50;;;;;;;;;;6255596;22;20087;-85
2022/03/16 14:23:22;;;;;;;23.25;17.23;;;;;;;;;;6256279;22;20382;-85
2022/03/16 14:25:48;;;;;;;20.58;16.10;;;;;;;;;;6255345;22;20007;-86
2022/03/16 14:28:15;;;;;;;23.52;18.55;;;;;;;;;;6255664;22;20063;-83
2022/03/16 14:30:53;;;;;;;23.08;17.13;;;;;;;;;;6281180;22;20031;-85
2022/03/16 14:33:23;;;;;;;21.38;18.17;;;;;;;;;;6255763;22;20003;-83
2022/03/16 14:35:56;;;;;;;22.48;18.05;;;;;;;;;;6280480;22;20499;-84
2022/03/16 14:38:23;;;;;;;23.55;19.02;;;;;;;;;;6253862;22;20440;-84
2022/03/16 14:40:54;;;;;;;23.23;19.00;;;;;;;;;;6285133;22;20047;-85
2022/03/16 14:43:21;;;;;;;25.05;19.65;;;;;;;;;;6258714;22;20004;-85
2022/03/16 14:45:47;;;;;;;26.30;20.27;;;;;;;;;;6283418;22;20404;-85